Time;durP1;ratioP1;P1;durP2;ratioP2;P2;SDS_P1;SDS_P2;PMS_P1;PMS_P2;Temp;Humidity;BMP_temperature;BMP_pressure;BME280_temperature;BME280_humidity;BME280_pressure;Samples;Min_cycle;Max_cycle;Signal;HPM_P1;HPM_P2
2022/11/02 00:02:23;;;;;;;11.80;10.20;;;;;;;11.02;100.00;96949.94;5029386;28;103978;-63
2022/11/02 00:04:50;;;;;;;13.87;11.17;;;;;;;10.98;100.00;96944.31;5031155;27;101868;-63
2022/11/02 00:07:17;;;;;;;12.23;8.93;;;;;;;10.70;100.00;96943.50;5031158;27;102343;-63
2022/11/02 00:09:44;;;;;;;9.47;8.47;;;;;;;10.54;100.00;96947.72;5031623;27;102486;-64
2022/11/02 00:12:10;;;;;;;9.43;7.50;;;;;;;10.53;100.00;96942.63;5031699;27;101971;-64
2022/11/02 00:14:37;;;;;;;8.50;7.07;;;;;;;10.44;100.00;96946.69;5032335;27;102332;-63
2022/11/02 00:17:07;;;;;;;8.83;6.80;;;;;;;10.51;100.00;96948.19;5031387;27;102525;-63
2022/11/02 00:19:34;;;;;;;7.53;6.53;;;;;;;10.39;100.00;96952.75;5034853;27;101826;-63
2022/11/02 00:22:01;;;;;;;8.40;7.20;;;;;;;10.40;100.00;96950.88;5030933;28;102586;-64
2022/11/02 00:24:28;;;;;;;7.80;7.07;;;;;;;10.44;100.00;96952.84;5031831;27;102256;-63
2022/11/02 00:26:55;;;;;;;7.40;6.60;;;;;;;10.26;100.00;96958.28;5030106;28;105543;-63
2022/11/02 00:29:23;;;;;;;8.00;6.60;;;;;;;10.28;100.00;96958.06;5029685;28;103761;-64
2022/11/02 00:31:50;;;;;;;7.40;5.90;;;;;;;10.13;100.00;96961.22;5030342;28;101952;-63
2022/11/02 00:34:18;;;;;;;8.23;5.97;;;;;;;10.20;100.00;96955.78;5031880;27;102241;-63
2022/11/02 00:36:45;;;;;;;7.87;6.00;;;;;;;10.12;100.00;96964.91;5029630;28;103863;-63
2022/11/02 00:39:12;;;;;;;7.13;6.27;;;;;;;10.10;100.00;96967.00;5031684;28;101876;-63
2022/11/02 00:41:40;;;;;;;7.37;6.47;;;;;;;9.95;100.00;96974.63;5032717;28;103907;-63
2022/11/02 00:44:07;;;;;;;9.27;7.00;;;;;;;9.84;100.00;96977.25;5013712;28;102063;-63
2022/11/02 00:46:34;;;;;;;7.70;6.40;;;;;;;9.80;100.00;96978.75;5030113;28;104177;-63
2022/11/02 00:49:01;;;;;;;9.27;6.80;;;;;;;9.80;100.00;96976.91;5029159;28;105323;-63
2022/11/02 00:51:30;;;;;;;7.80;6.73;;;;;;;9.81;100.00;96980.41;5031476;28;101809;-63
2022/11/02 00:53:57;;;;;;;7.27;6.10;;;;;;;9.83;100.00;96975.66;5031364;27;102844;-63
2022/11/02 00:56:24;;;;;;;7.97;5.90;;;;;;;9.84;100.00;96988.72;5029002;28;105378;-63
2022/11/02 00:58:51;;;;;;;9.83;7.40;;;;;;;9.80;100.00;96974.25;5029973;28;102035;-63
2022/11/02 01:01:18;;;;;;;8.13;6.30;;;;;;;9.79;100.00;96975.31;5029897;28;103728;-63
2022/11/02 01:03:45;;;;;;;6.57;5.90;;;;;;;9.53;100.00;96980.22;5032617;28;105771;-63
2022/11/02 01:06:13;;;;;;;9.53;6.43;;;;;;;9.60;100.00;96980.97;5029685;28;105645;-63
2022/11/02 01:08:42;;;;;;;6.63;5.83;;;;;;;9.50;100.00;96975.41;5029249;28;104999;-63
2022/11/02 01:11:11;;;;;;;6.37;5.63;;;;;;;9.58;100.00;96975.03;5029832;28;101922;-64
2022/11/02 01:13:38;;;;;;;7.47;6.07;;;;;;;9.50;100.00;96975.41;5029578;28;105582;-63
2022/11/02 01:16:05;;;;;;;5.73;5.23;;;;;;;9.43;100.00;96987.97;5030332;27;102547;-63
2022/11/02 01:18:33;;;;;;;5.73;5.20;;;;;;;9.34;100.00;96984.03;5030447;27;101915;-63
2022/11/02 01:21:00;;;;;;;6.23;5.63;;;;;;;9.38;100.00;96985.97;5031178;27;102823;-63
2022/11/02 01:23:27;;;;;;;8.73;5.27;;;;;;;9.44;100.00;96989.59;5030268;27;103006;-63
2022/11/02 01:25:55;;;;;;;5.43;4.93;;;;;;;9.32;100.00;96978.94;5032937;28;101832;-63
2022/11/02 01:28:22;;;;;;;5.43;4.90;;;;;;;9.27;100.00;96985.97;5028362;28;103843;-63
2022/11/02 01:30:49;;;;;;;6.17;5.00;;;;;;;9.26;100.00;96976.41;5031188;27;101800;-63
2022/11/02 01:33:16;;;;;;;5.37;4.70;;;;;;;9.28;100.00;96979.63;5030058;27;101647;-63
2022/11/02 01:35:43;;;;;;;4.57;4.17;;;;;;;9.24;100.00;96984.59;5029026;28;103693;-63
2022/11/02 01:38:09;;;;;;;5.53;4.27;;;;;;;9.17;100.00;96969.81;5029257;28;101829;-63
2022/11/02 01:40:37;;;;;;;4.47;4.07;;;;;;;9.23;100.00;96971.53;5028913;28;103552;-63
2022/11/02 01:43:23;;;;;;;4.83;3.90;;;;;;;9.26;100.00;96968.44;5028524;28;103941;-63
2022/11/02 01:45:54;;;;;;;4.37;3.97;;;;;;;9.24;100.00;96975.81;5030836;28;101955;-63
2022/11/02 01:48:26;;;;;;;5.03;3.80;;;;;;;9.19;100.00;96973.03;5028099;28;105470;-63
2022/11/02 01:50:55;;;;;;;4.83;4.37;;;;;;;9.12;100.00;96977.63;5029096;28;102291;-63
2022/11/02 01:53:23;;;;;;;5.07;4.07;;;;;;;9.20;100.00;96970.16;5030609;27;102558;-63
2022/11/02 01:55:51;;;;;;;5.27;4.77;;;;;;;9.33;100.00;96982.41;5028503;28;105960;-64
2022/11/02 01:58:18;;;;;;;4.50;4.00;;;;;;;9.31;100.00;96971.19;5029122;28;101815;-63
2022/11/02 02:00:47;;;;;;;4.53;4.13;;;;;;;9.27;100.00;96972.72;5028849;28;105632;-63
2022/11/02 02:03:17;;;;;;;5.23;3.70;;;;;;;9.24;100.00;96962.53;5028541;28;105519;-63
2022/11/02 02:05:49;;;;;;;5.27;4.60;;;;;;;9.14;100.00;96965.75;5029033;28;101783;-63
2022/11/02 02:08:20;;;;;;;5.90;3.93;;;;;;;9.07;100.00;96974.84;5031788;28;103562;-63
2022/11/02 02:10:47;;;;;;;4.63;4.10;;;;;;;9.04;100.00;96975.28;5028587;28;102157;-63
2022/11/02 02:13:15;;;;;;;4.40;4.00;;;;;;;9.07;100.00;96967.72;5028847;28;105234;-63
2022/11/02 02:15:54;;;;;;;4.87;4.37;;;;;;;9.15;100.00;96971.84;5028251;28;105059;-63
2022/11/02 02:18:29;;;;;;;4.87;3.90;;;;;;;9.11;100.00;96970.72;5028575;28;101891;-63
2022/11/02 02:21:21;;;;;;;4.93;4.07;;;;;;;9.17;100.00;96967.94;5028881;28;104774;-63
2022/11/02 02:24:20;;;;;;;4.43;4.03;;;;;;;9.10;100.00;96967.22;5028074;28;105045;-63
2022/11/02 02:27:05;;;;;;;5.90;4.00;;;;;;;9.02;100.00;96978.19;5028579;28;101810;-63
2022/11/02 02:29:44;;;;;;;4.43;4.03;;;;;;;9.10;100.00;96969.09;5029262;27;101705;-63
2022/11/02 02:32:16;;;;;;;5.53;3.70;;;;;;;9.15;100.00;96974.50;5032961;27;102647;-63
2022/11/02 02:34:52;;;;;;;5.03;4.53;;;;;;;9.00;100.00;96966.97;5028524;28;103835;-63
2022/11/02 02:37:25;;;;;;;5.57;4.57;;;;;;;9.09;100.00;96965.63;5029560;27;102608;-63
2022/11/02 02:39:57;;;;;;;5.83;5.17;;;;;;;9.07;100.00;96970.34;5028561;28;101903;-63
2022/11/02 02:42:29;;;;;;;6.10;5.00;;;;;;;9.12;100.00;96969.66;5029947;27;102270;-64
2022/11/02 02:45:08;;;;;;;5.60;4.87;;;;;;;9.05;100.00;96971.63;5031218;28;103671;-63
2022/11/02 02:47:39;;;;;;;6.80;5.50;;;;;;;9.08;100.00;96971.16;5032045;28;101780;-63
2022/11/02 02:50:13;;;;;;;5.93;5.20;;;;;;;9.03;100.00;96978.97;5031645;28;105213;-63
2022/11/02 02:52:42;;;;;;;6.33;5.00;;;;;;;8.98;100.00;96977.00;5031332;28;105704;-63
2022/11/02 02:55:16;;;;;;;5.60;5.10;;;;;;;9.07;100.00;96980.16;5035277;28;101736;-63
2022/11/02 02:57:45;;;;;;;6.53;5.93;;;;;;;9.05;100.00;96985.69;5031267;28;105197;-63
2022/11/02 03:00:17;;;;;;;6.70;6.00;;;;;;;9.14;100.00;96994.13;5031846;28;101853;-63
2022/11/02 03:02:59;;;;;;;7.80;6.43;;;;;;;9.15;100.00;96987.78;5031767;28;105436;-63
2022/11/02 03:05:30;;;;;;;8.17;6.10;;;;;;;9.15;100.00;96988.59;5031154;28;105315;-63
2022/11/02 03:08:03;;;;;;;7.40;5.60;;;;;;;9.16;100.00;96984.09;5031811;28;101788;-63
2022/11/02 03:10:34;;;;;;;6.97;5.93;;;;;;;9.28;100.00;96984.94;5031612;28;104383;-63
2022/11/02 03:13:27;;;;;;;6.57;5.70;;;;;;;9.28;100.00;96991.03;5031089;28;105108;-63
2022/11/02 03:16:01;;;;;;;6.93;5.33;;;;;;;9.17;100.00;96991.81;5031286;28;101986;-63
2022/11/02 03:18:39;;;;;;;6.23;5.30;;;;;;;9.11;100.00;96998.03;5034033;28;105603;-63
2022/11/02 03:21:15;;;;;;;8.13;5.33;;;;;;;9.16;100.00;96995.50;5031457;28;101880;-63
2022/11/02 03:23:51;;;;;;;5.73;5.13;;;;;;;9.12;100.00;97001.50;5033125;28;102524;-63
2022/11/02 03:26:26;;;;;;;5.43;4.90;;;;;;;9.14;100.00;97008.22;5030757;28;105177;-64
2022/11/02 03:29:03;;;;;;;5.80;4.93;;;;;;;9.04;100.00;97007.13;5032669;27;101668;-63
2022/11/02 03:31:36;;;;;;;5.70;4.87;;;;;;;9.08;100.00;97016.25;5031410;28;104789;-63
2022/11/02 03:34:21;;;;;;;5.57;4.77;;;;;;;8.99;100.00;97009.66;5030782;28;105382;-63
2022/11/02 03:36:51;;;;;;;5.37;4.47;;;;;;;9.01;100.00;97015.53;5031315;28;101851;-63
2022/11/02 03:39:22;;;;;;;6.30;4.87;;;;;;;8.95;100.00;97021.75;5031269;28;105703;-63
2022/11/02 03:41:53;;;;;;;4.87;3.70;;;;;;;9.00;100.00;97020.03;5033688;28;105954;-63
2022/11/02 03:44:24;;;;;;;4.33;3.93;;;;;;;9.01;100.00;97018.19;5031170;28;103733;-63
2022/11/02 03:46:58;;;;;;;6.30;4.10;;;;;;;9.12;100.00;97020.09;5030454;28;105830;-63
2022/11/02 03:49:30;;;;;;;4.40;4.00;;;;;;;9.17;100.00;97028.19;5030443;28;102059;-63
2022/11/02 03:52:02;;;;;;;6.27;4.00;;;;;;;9.23;100.00;97033.41;5031145;28;105178;-63
2022/11/02 03:54:42;;;;;;;5.47;3.80;;;;;;;9.26;100.00;97032.94;5029637;28;105978;-63
2022/11/02 03:57:12;;;;;;;4.57;4.13;;;;;;;9.38;100.00;97040.94;5030623;28;101897;-63
2022/11/02 03:59:40;;;;;;;5.87;4.83;;;;;;;9.38;100.00;97030.31;5032332;27;102400;-63
2022/11/02 04:02:13;;;;;;;5.03;4.23;;;;;;;9.40;100.00;97033.53;5033772;28;104083;-63
2022/11/02 04:04:48;;;;;;;4.77;4.00;;;;;;;9.50;100.00;97041.78;5030524;28;103780;-63
2022/11/02 04:07:19;;;;;;;4.40;4.00;;;;;;;9.49;100.00;97048.13;5030140;28;105333;-63
2022/11/02 04:09:46;;;;;;;4.20;3.90;;;;;;;9.37;100.00;97055.25;5030767;28;101750;-63
2022/11/02 04:14:57;;;;;;;6.27;5.03;;;;;;;9.51;100.00;97060.13;5031435;28;102737;-63
2022/11/02 04:20:14;;;;;;;7.80;6.20;;;;;;;9.71;100.00;97068.59;5030209;28;105477;-63
2022/11/02 04:25:27;;;;;;;8.80;6.80;;;;;;;9.76;100.00;97076.69;5034109;28;101958;-63
2022/11/02 04:28:08;;;;;;;10.17;7.20;;;;;;;9.82;100.00;97074.97;5029792;28;105494;-63
2022/11/02 04:30:38;;;;;;;8.07;6.90;;;;;;;9.86;100.00;97076.16;5030367;28;101826;-63
2022/11/02 04:36:01;;;;;;;9.60;7.43;;;;;;;9.91;100.00;97078.91;5029824;28;104039;-63
2022/11/02 04:38:39;;;;;;;8.87;7.13;;;;;;;9.97;100.00;97080.66;5030435;28;101759;-63
2022/11/02 04:43:57;;;;;;;10.00;7.73;;;;;;;10.11;100.00;97088.22;5029314;28;105226;-63
2022/11/02 04:46:25;;;;;;;9.00;7.50;;;;;;;10.15;100.00;97086.69;5030032;28;101844;-63
2022/11/02 04:48:54;;;;;;;9.93;7.50;;;;;;;10.24;100.00;97087.19;5032693;28;104815;-63
2022/11/02 04:51:24;;;;;;;7.90;7.13;;;;;;;10.31;100.00;97096.63;5030152;28;101965;-63
2022/11/02 04:53:52;;;;;;;11.83;7.67;;;;;;;10.32;100.00;97092.16;5030195;28;104483;-63
2022/11/02 04:56:20;;;;;;;9.03;7.23;;;;;;;10.33;100.00;97096.41;5029294;28;104803;-63
2022/11/02 04:58:49;;;;;;;7.67;6.47;;;;;;;10.40;100.00;97095.25;5029879;28;101904;-63
2022/11/02 05:01:18;;;;;;;8.47;6.97;;;;;;;10.37;100.00;97092.25;5029954;28;104787;-63
2022/11/02 05:03:47;;;;;;;10.57;7.27;;;;;;;10.42;100.00;97103.00;5029080;28;105192;-63
2022/11/02 05:06:18;;;;;;;11.20;7.07;;;;;;;10.37;100.00;97101.03;5029248;27;101958;-63
2022/11/02 05:08:45;;;;;;;10.60;6.87;;;;;;;10.42;100.00;97097.69;5029408;28;105631;-63
2022/11/02 05:11:13;;;;;;;8.23;7.43;;;;;;;10.43;100.00;97101.97;5032427;28;105771;-63
2022/11/02 05:13:41;;;;;;;8.60;7.17;;;;;;;10.40;100.00;97099.75;5030814;27;102283;-63
2022/11/02 05:16:12;;;;;;;8.13;6.80;;;;;;;10.43;100.00;97104.63;5029168;28;105347;-63
2022/11/02 05:18:39;;;;;;;8.43;7.43;;;;;;;10.45;100.00;97105.19;5029643;28;102023;-63
2022/11/02 05:21:07;;;;;;;12.50;8.03;;;;;;;10.44;100.00;97095.59;5029730;28;105186;-63
2022/11/02 05:23:36;;;;;;;11.63;8.57;;;;;;;10.47;100.00;97092.50;5028958;28;105812;-63
2022/11/02 05:26:05;;;;;;;11.80;7.97;;;;;;;10.48;100.00;97091.44;5029201;28;101911;-63
2022/11/02 05:28:34;;;;;;;10.03;7.70;;;;;;;10.50;100.00;97090.16;5029497;28;104839;-63
2022/11/02 05:31:04;;;;;;;8.07;6.83;;;;;;;10.47;100.00;97098.59;5028949;28;105354;-63
2022/11/02 05:33:34;;;;;;;8.40;6.87;;;;;;;10.49;100.00;97093.06;5032867;28;101836;-63
2022/11/02 05:36:09;;;;;;;9.43;6.37;;;;;;;10.43;100.00;97107.28;5028679;28;105107;-63
2022/11/02 05:38:41;;;;;;;8.60;6.70;;;;;;;10.41;100.00;97096.09;5029671;28;102035;-63
2022/11/02 05:41:09;;;;;;;7.67;6.80;;;;;;;10.41;100.00;97096.09;5029137;28;104252;-63
2022/11/02 05:43:38;;;;;;;8.63;6.83;;;;;;;10.39;100.00;97082.19;5028803;28;105525;-63
2022/11/02 05:46:07;;;;;;;8.67;6.10;;;;;;;10.40;100.00;97092.59;5029169;28;101923;-63
2022/11/02 05:48:34;;;;;;;8.03;7.03;;;;;;;10.36;100.00;97090.66;5028502;28;103514;-63
2022/11/02 05:51:03;;;;;;;9.20;7.57;;;;;;;10.36;100.00;97080.00;5028533;28;102704;-63
2022/11/02 05:53:32;;;;;;;8.60;6.63;;;;;;;10.37;100.00;97079.75;5021990;27;102059;-63
2022/11/02 05:56:17;;;;;;;7.73;6.40;;;;;;;10.42;100.00;97084.41;5018418;28;102571;-63
2022/11/02 05:58:44;;;;;;;9.57;7.20;;;;;;;10.44;100.00;97090.28;5010927;28;101996;-62
2022/11/02 06:04:34;;;;;;;10.97;6.60;;;;;;;10.51;100.00;97085.66;5008739;28;103793;-62
2022/11/02 06:07:01;;;;;;;11.77;8.67;;;;;;;10.50;100.00;97079.53;5008950;28;101923;-62
2022/11/02 06:09:27;;;;;;;9.97;8.50;;;;;;;10.52;100.00;97084.63;5009132;28;105200;-62
2022/11/02 06:12:08;;;;;;;10.80;7.57;;;;;;;10.60;100.00;97094.91;5008426;28;105740;-62
2022/11/02 06:14:34;;;;;;;9.20;6.60;;;;;;;10.62;100.00;97087.47;5010653;28;101744;-62
2022/11/02 06:17:01;;;;;;;8.37;6.37;;;;;;;10.66;100.00;97086.81;5011881;28;103535;-62
2022/11/02 06:19:28;;;;;;;7.20;5.73;;;;;;;10.73;100.00;97086.66;5011141;28;101956;-62
2022/11/02 06:26:04;;;;;;;9.83;6.40;;;;;;;10.73;100.00;97084.81;5013483;28;101849;-62
2022/11/02 06:28:32;;;;;;;8.43;6.57;;;;;;;10.82;100.00;97079.94;5013313;28;101904;-62
2022/11/02 06:31:01;;;;;;;8.30;6.43;;;;;;;10.79;100.00;97083.09;5012253;28;105081;-62
2022/11/02 06:33:28;;;;;;;8.57;6.33;;;;;;;10.79;100.00;97093.72;5013249;28;102689;-62
2022/11/02 06:35:55;;;;;;;7.63;5.47;;;;;;;10.77;100.00;97093.94;5012280;28;101966;-62
2022/11/02 06:38:23;;;;;;;8.03;6.17;;;;;;;10.77;100.00;97098.44;5012200;28;104967;-62
2022/11/02 06:40:54;;;;;;;8.13;6.23;;;;;;;10.78;100.00;97097.41;5014980;28;105774;-62
2022/11/02 06:43:21;;;;;;;10.60;7.50;;;;;;;10.77;100.00;97109.91;5013272;28;102221;-62
2022/11/02 06:45:49;;;;;;;10.63;8.10;;;;;;;10.75;100.00;97113.84;5011544;28;105861;-62
2022/11/02 06:48:16;;;;;;;10.50;7.93;;;;;;;10.76;100.00;97116.28;5011911;28;101870;-62
2022/11/02 06:50:43;;;;;;;9.87;7.17;;;;;;;10.78;100.00;97119.50;5013335;28;102832;-62
2022/11/02 06:56:32;;;;;;;8.73;6.90;;;;;;;10.90;100.00;97114.97;5013570;28;101694;-62
2022/11/02 06:58:59;;;;;;;10.53;6.93;;;;;;;10.96;100.00;97118.56;5013242;28;102305;-62
2022/11/02 07:02:03;;;;;;;10.77;6.73;;;;;;;11.00;100.00;97123.19;5012839;28;101667;-62
2022/11/02 07:04:29;;;;;;;7.60;6.80;;;;;;;11.03;100.00;97130.69;5016966;28;102106;-62
2022/11/02 07:06:56;;;;;;;11.87;8.30;;;;;;;11.00;100.00;97136.47;5012804;28;102591;-62
2022/11/02 07:09:23;;;;;;;9.23;8.23;;;;;;;11.02;100.00;97139.69;5013207;28;101880;-62
2022/11/02 07:15:14;;;;;;;9.60;7.60;;;;;;;11.09;100.00;97153.72;5011090;28;105836;-62
2022/11/02 07:17:42;;;;;;;10.07;7.30;;;;;;;11.18;100.00;97154.16;5013159;28;101875;-62
2022/11/02 07:20:10;;;;;;;11.40;7.23;;;;;;;11.15;100.00;97149.28;5011807;28;103553;-62
2022/11/02 07:22:38;;;;;;;8.57;7.67;;;;;;;11.24;100.00;97151.34;5012421;28;103031;-62
2022/11/02 07:28:28;;;;;;;10.37;7.27;;;;;;;11.32;100.00;97158.16;5015551;28;101944;-64
2022/11/02 07:30:55;;;;;;;16.50;8.63;;;;;;;11.40;100.00;97163.91;5014903;28;103097;-65
2022/11/02 07:33:23;;;;;;;11.67;7.37;;;;;;;11.44;100.00;97156.28;5032892;27;102905;-64
2022/11/02 07:35:50;;;;;;;8.73;7.23;;;;;;;11.57;100.00;97150.66;5030963;28;105810;-64
2022/11/02 07:38:20;;;;;;;10.53;7.40;;;;;;;11.63;100.00;97149.75;5032905;27;101805;-62
2022/11/02 07:40:49;;;;;;;12.50;8.07;;;;;;;11.68;100.00;97148.00;5031167;28;103858;-63
2022/11/02 07:43:16;;;;;;;9.07;7.40;;;;;;;11.79;100.00;97155.13;5021786;27;103110;-62
2022/11/02 07:45:53;;;;;;;9.83;8.20;;;;;;;11.80;100.00;97155.94;5014307;28;101873;-63
2022/11/02 07:48:19;;;;;;;10.53;8.47;;;;;;;11.91;100.00;97147.06;5032455;27;102891;-63
2022/11/02 07:50:48;;;;;;;11.83;9.00;;;;;;;12.07;100.00;97151.59;5033881;28;103921;-63
2022/11/02 07:53:15;;;;;;;12.80;8.00;;;;;;;12.25;100.00;97148.69;5031636;28;102619;-63
2022/11/02 07:55:41;;;;;;;10.27;7.10;;;;;;;12.46;100.00;97153.31;5031311;27;102687;-62
2022/11/02 07:58:12;;;;;;;10.03;7.50;;;;;;;12.67;100.00;97149.91;5032666;27;101726;-61
2022/11/02 08:00:40;;;;;;;10.37;6.03;;;;;;;12.72;100.00;97144.66;5032509;28;102393;-62
2022/11/02 08:03:50;;;;;;;8.93;6.33;;;;;;;12.86;100.00;97144.03;5014897;27;102612;-62
2022/11/02 08:06:18;;;;;;;9.13;6.43;;;;;;;12.94;100.00;97148.16;5012424;28;101942;-62
2022/11/02 08:08:45;;;;;;;7.53;5.97;;;;;;;13.02;100.00;97139.78;5012215;28;102817;-62
2022/11/02 08:11:14;;;;;;;9.93;6.00;;;;;;;13.32;100.00;97137.47;5010725;28;103097;-62
2022/11/02 08:13:42;;;;;;;10.97;5.77;;;;;;;13.32;100.00;97140.94;5015173;28;102090;-62
2022/11/02 08:16:09;;;;;;;7.20;5.80;;;;;;;13.45;100.00;97137.88;5010715;28;105337;-63
2022/11/02 08:18:36;;;;;;;7.40;5.00;;;;;;;13.49;100.00;97140.88;5000303;28;102701;-65
2022/11/02 08:21:33;;;;;;;10.30;6.10;;;;;;;13.66;100.00;97136.25;5028588;28;105412;-63
2022/11/02 08:24:00;;;;;;;7.40;5.30;;;;;;;13.78;100.00;97136.91;5031353;27;105230;-63
2022/11/02 08:27:06;;;;;;;5.17;4.33;;;;;;;13.85;100.00;97138.31;5030638;28;102680;-63
2022/11/02 08:29:34;;;;;;;11.20;7.07;;;;;;;13.81;100.00;97128.38;5032179;27;102862;-63
2022/11/02 08:32:34;;;;;;;7.23;4.77;;;;;;;13.80;100.00;97138.25;5031296;28;102614;-64
2022/11/02 08:35:01;;;;;;;7.17;5.47;;;;;;;13.99;100.00;97136.84;5035743;27;101806;-63
2022/11/02 08:37:30;;;;;;;6.63;5.00;;;;;;;14.06;100.00;97134.00;5031496;27;101926;-63
2022/11/02 08:39:57;;;;;;;8.53;6.03;;;;;;;14.04;100.00;97138.75;5030300;28;102027;-63
2022/11/02 08:42:23;;;;;;;7.97;5.60;;;;;;;14.27;100.00;97138.47;5031640;27;102313;-63
2022/11/02 08:44:50;;;;;;;11.73;7.67;;;;;;;14.39;100.00;97137.22;5031596;27;102598;-64
2022/11/02 08:47:17;;;;;;;6.17;4.50;;;;;;;14.28;100.00;97140.09;5014772;28;102149;-63
2022/11/02 08:49:45;;;;;;;6.93;4.40;;;;;;;14.41;100.00;97139.66;5020989;28;102363;-63
2022/11/02 08:52:25;;;;;;;5.87;4.13;;;;;;;14.41;100.00;97140.47;5030269;28;102796;-64
2022/11/02 08:54:54;;;;;;;7.70;4.80;;;;;;;14.42;100.00;97144.75;5011918;27;102675;-63
2022/11/02 08:57:21;;;;;;;8.27;4.37;;;;;;;14.33;100.00;97137.47;5014060;28;102657;-63
2022/11/02 08:59:47;;;;;;;5.93;4.77;;;;;;;14.13;100.00;97143.41;5010146;28;101888;-64
2022/11/02 09:05:43;;;;;;;8.17;6.90;;;;;;;14.16;100.00;97152.78;5010361;28;105883;-63
2022/11/02 09:08:13;;;;;;;9.13;6.27;;;;;;;14.20;100.00;97146.72;5031320;27;101804;-64
2022/11/02 09:10:41;;;;;;;5.87;5.03;;;;;;;14.23;100.00;97148.06;5030400;27;102895;-64
2022/11/02 09:13:17;;;;;;;9.83;5.80;;;;;;;14.00;100.00;97151.84;5030481;27;102745;-64
2022/11/02 09:15:44;;;;;;;7.03;4.57;;;;;;;14.10;100.00;97148.44;5031223;27;101717;-64
2022/11/02 09:18:10;;;;;;;7.27;4.87;;;;;;;13.98;100.00;97150.47;5031462;27;102363;-63
2022/11/02 09:20:37;;;;;;;8.03;4.43;;;;;;;13.85;100.00;97148.22;5031720;27;102479;-64
2022/11/02 09:23:05;;;;;;;7.67;4.93;;;;;;;13.83;100.00;97147.66;5011056;28;102338;-64
2022/11/02 09:25:33;;;;;;;6.83;5.40;;;;;;;13.78;100.00;97155.59;5010573;28;102800;-63
2022/11/02 09:28:01;;;;;;;9.20;4.93;;;;;;;13.82;100.00;97157.56;5011231;28;102114;-63
2022/11/02 09:30:28;;;;;;;9.30;4.83;;;;;;;13.89;100.00;97152.00;5023857;28;102278;-64
2022/11/02 09:33:21;;;;;;;5.83;4.40;;;;;;;13.89;100.00;97154.69;5029548;27;102364;-64
2022/11/02 09:35:49;;;;;;;6.00;4.47;;;;;;;14.00;100.00;97153.72;5017665;27;102215;-64
2022/11/02 09:38:18;;;;;;;8.07;4.50;;;;;;;14.16;100.00;97150.91;5028043;28;102250;-64
2022/11/02 09:40:50;;;;;;;5.80;4.50;;;;;;;14.18;100.00;97162.16;5027941;27;102526;-64
2022/11/02 09:43:28;;;;;;;7.63;4.53;;;;;;;14.26;100.00;97152.91;5032829;28;101814;-64
2022/11/02 09:45:58;;;;;;;6.40;4.70;;;;;;;14.20;100.00;97160.09;5018117;27;102563;-64
2022/11/02 09:48:28;;;;;;;8.53;4.87;;;;;;;14.28;100.00;97164.19;5018327;28;101847;-64
2022/11/02 09:51:02;;;;;;;10.83;4.77;;;;;;;14.15;100.00;97161.88;5018043;27;101983;-64
2022/11/02 09:53:39;;;;;;;5.13;4.30;;;;;;;14.25;100.00;97164.66;5022671;27;102583;-64
2022/11/02 09:56:10;;;;;;;9.30;4.50;;;;;;;14.10;100.00;97165.31;5029339;27;101734;-64
2022/11/02 09:58:40;;;;;;;7.40;4.37;;;;;;;14.15;100.00;97176.06;5028244;28;103931;-63
2022/11/02 10:01:55;;;;;;;7.67;4.30;;;;;;;14.14;100.00;97169.09;5014997;28;102647;-64
2022/11/02 10:04:53;;;;;;;8.23;4.27;;;;;;;14.22;100.00;97178.56;4990973;27;101957;-64
2022/11/02 10:07:29;;;;;;;6.07;4.30;;;;;;;14.33;100.00;97165.00;5018905;28;102300;-63
2022/11/02 10:10:00;;;;;;;6.57;4.63;;;;;;;14.42;100.00;97176.06;5010669;28;101678;-64
2022/11/02 10:16:19;;;;;;;7.87;4.57;;;;;;;14.47;100.00;97178.78;5028008;28;102269;-63
2022/11/02 10:18:49;;;;;;;6.43;4.23;;;;;;;14.58;100.00;97172.44;5017390;27;101954;-63
2022/11/02 10:21:20;;;;;;;6.73;4.13;;;;;;;14.65;100.00;97167.66;5030301;27;102335;-63
2022/11/02 10:23:51;;;;;;;6.80;4.20;;;;;;;14.68;100.00;97167.97;5018793;27;102576;-63
2022/11/02 10:26:24;;;;;;;4.93;4.20;;;;;;;14.65;100.00;97168.47;5010661;28;101745;-63
2022/11/02 10:28:58;;;;;;;14.07;6.93;;;;;;;14.60;100.00;97164.97;5010379;28;102519;-63
2022/11/02 10:32:15;;;;;;;27.13;11.73;;;;;;;14.83;100.00;97170.75;5012439;28;101967;-63
2022/11/02 10:34:45;;;;;;;39.17;19.47;;;;;;;14.94;100.00;97172.41;5009998;28;102819;-63
2022/11/02 10:37:42;;;;;;;42.43;22.77;;;;;;;15.03;100.00;97167.38;5027483;28;103893;-63
2022/11/02 10:40:23;;;;;;;11.87;7.57;;;;;;;14.96;100.00;97174.84;5029369;27;101880;-63
2022/11/02 10:43:03;;;;;;;7.70;4.10;;;;;;;14.87;100.00;97171.06;5028553;28;105384;-64
2022/11/02 10:45:58;;;;;;;7.80;5.07;;;;;;;14.98;100.00;97168.16;5028346;28;103996;-64
2022/11/02 10:48:35;;;;;;;9.07;4.00;;;;;;;14.86;100.00;97172.09;5012866;27;101902;-64
2022/11/02 10:51:11;;;;;;;7.00;3.50;;;;;;;14.96;100.00;97167.63;5030041;27;102377;-64
2022/11/02 10:53:41;;;;;;;6.00;3.27;;;;;;;15.04;100.00;97174.38;5032936;27;102545;-64
2022/11/02 10:56:41;;;;;;;4.73;3.10;;;;;;;15.20;100.00;97168.03;5025398;27;101864;-65
2022/11/02 10:59:13;;;;;;;5.87;3.33;;;;;;;15.22;100.00;97168.56;5023814;27;102602;-64
2022/11/02 11:01:47;;;;;;;7.40;3.83;;;;;;;15.31;100.00;97169.69;5010009;28;101667;-64
2022/11/02 11:04:22;;;;;;;7.80;3.37;;;;;;;15.33;100.00;97170.28;5022986;27;105513;-65
2022/11/02 11:06:51;;;;;;;4.27;2.80;;;;;;;15.38;100.00;97172.97;5022889;28;103706;-67
2022/11/02 11:09:21;;;;;;;4.50;3.10;;;;;;;15.46;100.00;97164.41;5032616;27;102181;-66
2022/11/02 11:12:03;;;;;;;4.13;3.20;;;;;;;15.31;100.00;97161.66;5032229;27;102321;-65
2022/11/02 11:14:44;;;;;;;4.90;3.13;;;;;;;15.39;100.00;97162.00;5018505;28;105692;-66
2022/11/02 11:17:15;;;;;;;6.10;3.70;;;;;;;15.70;100.00;97154.88;5019503;27;102059;-65
2022/11/02 11:19:49;;;;;;;6.13;3.40;;;;;;;15.89;100.00;97147.94;5013739;28;102530;-67
2022/11/02 11:30:23;;;;;;;7.50;5.40;;;;;;;15.75;100.00;97141.47;5009182;28;102242;-65
2022/11/02 11:32:55;;;;;;;10.03;6.33;;;;;;;15.83;100.00;97135.59;5031523;28;102199;-66
2022/11/02 11:35:25;;;;;;;5.83;3.20;;;;;;;15.68;100.00;97138.22;5020687;27;102526;-66
2022/11/02 11:37:55;;;;;;;5.73;2.67;;;;;;;15.53;100.00;97141.66;5012508;28;102764;-66
2022/11/02 11:40:23;;;;;;;4.00;3.10;;;;;;;15.57;100.00;97141.94;5013878;28;101728;-66
2022/11/02 11:43:23;;;;;;;8.00;3.90;;;;;;;15.78;100.00;97143.63;5015316;28;102370;-65
2022/11/02 11:45:58;;;;;;;6.90;3.40;;;;;;;15.92;100.00;97134.78;5014141;28;101864;-65
2022/11/02 11:48:33;;;;;;;3.97;2.83;;;;;;;15.94;100.00;97140.72;5010731;28;103843;-66
2022/11/02 11:51:36;;;;;;;9.83;5.33;;;;;;;16.08;100.00;97132.97;5014272;28;102577;-66
2022/11/02 11:54:18;;;;;;;8.03;4.80;;;;;;;16.01;100.00;97127.03;5013711;28;102033;-66
2022/11/02 11:56:45;;;;;;;5.47;2.87;;;;;;;15.81;100.00;97129.69;5015691;28;101813;-66
2022/11/02 11:59:27;;;;;;;4.53;1.80;;;;;;;15.83;100.00;97130.22;5025630;27;102512;-66
2022/11/02 12:02:23;;;;;;;3.17;1.40;;;;;;;15.83;100.00;97125.66;5023386;28;101965;-65
2022/11/02 12:04:50;;;;;;;5.00;1.50;;;;;;;15.81;100.00;97130.47;5030704;28;102457;-65
2022/11/02 12:07:37;;;;;;;3.37;1.27;;;;;;;15.75;100.00;97118.13;5035393;27;102499;-66
2022/11/02 12:10:13;;;;;;;3.60;1.20;;;;;;;15.75;100.00;97120.81;5029212;28;103674;-66
2022/11/02 12:13:05;;;;;;;1.43;1.13;;;;;;;15.77;100.00;97120.56;5031646;27;102489;-66
2022/11/02 12:15:45;;;;;;;2.30;1.30;;;;;;;15.58;100.00;97119.44;5030997;27;101816;-66
2022/11/02 12:18:30;;;;;;;4.77;1.50;;;;;;;15.57;100.00;97121.31;5013034;28;104158;-66
2022/11/02 12:21:49;;;;;;;3.70;1.60;;;;;;;15.66;100.00;97117.06;5013999;28;104142;-66
2022/11/02 12:24:58;;;;;;;2.57;1.30;;;;;;;15.60;100.00;97120.75;5029347;28;103704;-65
2022/11/02 12:27:36;;;;;;;5.23;1.60;;;;;;;15.67;100.00;97107.13;4952581;28;105609;-66
2022/11/02 12:30:13;;;;;;;4.47;1.33;;;;;;;15.65;100.00;97118.09;4952564;28;105189;-62
2022/11/02 12:33:16;;;;;;;3.23;1.03;;;;;;;15.62;100.00;97112.47;4967580;28;101884;-66